Flight Track Log - Related Links

Times and Time Zones

All times are in EDT time to prevent confusion due to time zone crossing. See the FFT403 flight status page for this flight to view local times or setup timezone preferences in your user account.

Time Position Orientation Groundspeed Altitude Reporting Facility
EDT Latitude Longitude Course Direction KTS MPH feet Rate Location/Type
Sun 10:58:35 AM 39.8333 -104.7667 252° West 175 201 7,200  Level Denver TRACON
Sun 10:59:29 AM 39.8167 -104.8333 252° West 239 275 8,300 1,778 Climbing Denver TRACON
Sun 11:00:23 AM 39.7833 -104.9167 243° Southwest 288 331 10,400 2,000 Climbing Denver TRACON
Sun 11:01:17 AM 39.7608 -105.0133 253° West 321 369 11,900 2,483 Climbing Denver Center
Sun 11:02:19 AM 39.7200 -105.1331 246° West 338 389 15,200 2,952 Climbing Denver Center
Sun 11:03:21 AM 39.6817 -105.2436 246° West 337 388 18,000 2,565 Climbing Denver Center
Sun 11:04:23 AM 39.6406 -105.3619 246° West 337 388 20,500 1,854 Climbing Denver Center
Sun 11:05:24 AM 39.6111 -105.4506 247° West 347 399 21,800 1,258 Climbing Denver Center
Sun 11:06:27 AM 39.5578 -105.6000 245° Southwest 374 430 23,100 1,210 Climbing Denver Center
Sun 11:07:28 AM 39.5183 -105.7361 249° West 410 472 24,300 1,317 Climbing Denver Center
Sun 11:08:30 AM 39.4806 -105.8792 251° West 415 478 25,800 1,645 Climbing Denver Center
Sun 11:09:32 AM 39.4328 -106.0525 250° West 434 499 27,700 1,597 Climbing Denver Center
Sun 11:10:34 AM 39.3897 -106.2069 250° West 440 506 29,100 1,113 Climbing Denver Center
Sun 11:11:36 AM 39.3481 -106.3522 250° West 448 516 30,000 968 Climbing Denver Center
Sun 11:12:38 AM 39.2986 -106.5247 250° West 457 526 31,100 1,210 Climbing Denver Center
Sun 11:13:40 AM 39.2558 -106.6703 249° West 453 521 32,500 1,210 Climbing Denver Center
Sun 11:14:42 AM 39.1914 -106.8053 238° Southwest 456 525 33,600 1,161 Climbing Denver Center
Sun 11:15:44 AM 39.1008 -106.9472 231° Southwest 461 531 34,900 677 Climbing Denver Center
Sun 11:16:46 AM 39.0389 -107.0775 239° Southwest 449 517 35,000 48 Climbing Denver Center
Sun 11:17:48 AM 38.9647 -107.2317 238° Southwest 453 521 35,000 48 Level Denver Center
Sun 11:18:50 AM 38.9006 -107.3644 238° Southwest 456 525 35,100 677 Climbing Denver Center
Sun 11:19:52 AM 38.8275 -107.5158 238° Southwest 448 516 36,400 919 Climbing Denver Center
Sun 11:20:54 AM 38.7647 -107.6458 238° Southwest 447 514 37,000 290 Climbing Denver Center
Sun 11:21:56 AM 38.6911 -107.7969 238° Southwest 448 516 37,000 194 Level Denver Center
Sun 11:22:58 AM 38.6278 -107.9286 238° Southwest 450 518 37,400 484 Climbing Denver Center
Sun 11:24:00 AM 38.5636 -108.0572 237° Southwest 448 516 38,000 290 Climbing Denver Center
Sun 11:25:02 AM 38.4906 -108.2072 238° Southwest 445 512 38,000  Level Denver Center
Sun 11:26:04 AM 38.4269 -108.3347 238° Southwest 445 512 38,000  Level Denver Center
Sun 11:27:06 AM 38.3533 -108.4842 238° Southwest 443 510 38,000  Level Denver Center
Sun 11:28:08 AM 38.2900 -108.6106 237° Southwest 442 509 38,000  Level Denver Center
Sun 11:29:10 AM 38.2169 -108.7578 238° Southwest 440 506 38,000  Level Denver Center
Sun 11:30:11 AM 38.1542 -108.8831 238° Southwest 439 505 38,000  Level Denver Center
Sun 11:31:13 AM 38.0794 -109.0300 237° Southwest 441 507 38,000  Level Denver Center
Sun 11:32:15 AM 38.0136 -109.1550 236° Southwest 437 503 38,000  Level Denver Center
Sun 11:33:17 AM 37.9494 -109.2831 238° Southwest 448 516 38,000  Level Denver Center
Sun 11:34:31 AM 37.8617 -109.4519 237° Southwest 451 519 38,000  Level Denver Center
Sun 11:35:33 AM 37.8083 -109.5564 237° Southwest 447 514 38,000  Level Denver Center
Sun 11:36:35 AM 37.7228 -109.7217 237° Southwest 441 507 38,000  Level Denver Center
Sun 11:37:37 AM 37.6581 -109.8478 237° Southwest 446 513 38,000  Level Denver Center
Sun 11:38:39 AM 37.5803 -109.9950 236° Southwest 451 519 38,000  Level Denver Center
Sun 11:39:41 AM 37.5158 -110.1189 237° Southwest 446 513 38,000  Level Denver Center
Sun 11:40:43 AM 37.4522 -110.2400 237° Southwest 435 501 38,000  Level Denver Center
Sun 11:41:45 AM 37.3722 -110.3914 236° Southwest 432 497 38,000  Level Denver Center
Sun 11:42:47 AM 37.3064 -110.5150 236° Southwest 429 494 38,000  Level Denver Center
Sun 11:43:49 AM 37.2422 -110.6358 236° Southwest 421 484 38,000  Level Denver Center
Sun 11:44:51 AM 37.1772 -110.7594 237° Southwest 422 486 38,000  Level Denver Center
Sun 11:45:52 AM 37.1100 -110.8839 236° Southwest 427 491 38,000  Level Denver Center
Sun 11:46:54 AM 37.0444 -111.0056 236° Southwest 423 487 38,000  Level Denver Center
Sun 11:47:56 AM 36.9636 -111.1536 236° Southwest 429 494 38,000  Level Denver Center
Sun 11:48:58 AM 36.8972 -111.2772 236° Southwest 428 493 38,000  Level Denver Center
Sun 11:50:00 AM 36.8306 -111.4011 236° Southwest 429 494 38,000  Level Denver Center
Sun 11:51:02 AM 36.7628 -111.5253 236° Southwest 431 496 38,000  Level Denver Center
Sun 11:52:04 AM 36.6933 -111.6511 235° Southwest 437 503 38,000  Level Denver Center
Sun 11:53:06 AM 36.6244 -111.7756 235° Southwest 437 503 38,000  Level Denver Center
Sun 11:53:51 AM 36.5692 -111.8756 235° Southwest 434 499 38,000  Level Los Center
Sun 11:54:53 AM 36.4997 -111.9992 235° Southwest 434 499 38,000  Level Los Center
Sun 11:55:55 AM 36.4317 -112.1228 236° Southwest 434 499 38,000  Level Los Center
Sun 11:56:57 AM 36.3625 -112.2472 235° Southwest 435 501 38,000  Level Los Center
Sun 11:57:59 AM 36.2783 -112.3961 235° Southwest 438 504 38,000  Level Los Center
Sun 11:59:01 AM 36.2094 -112.5206 236° Southwest 437 503 38,000  Level Los Center
Sun 12:00:03 PM 36.1392 -112.6447 235° Southwest 438 504 38,000  Level Los Center
Sun 12:01:05 PM 36.0683 -112.7697 235° Southwest 441 507 38,000  Level Los Center
Sun 12:02:07 PM 35.9967 -112.8964 235° Southwest 447 514 38,000  Level Los Center
Sun 12:03:09 PM 35.9272 -113.0181 235° Southwest 449 517 38,000  Level Los Center
Sun 12:04:11 PM 35.8428 -113.1656 235° Southwest 444 511 38,000  Level Los Center
Sun 12:05:13 PM 35.7728 -113.2878 235° Southwest 443 510 38,000  Level Los Center
Sun 12:06:15 PM 35.7025 -113.4100 235° Southwest 443 510 38,000  Level Los Center
Sun 12:07:17 PM 35.6322 -113.5322 235° Southwest 444 511 38,000  Level Los Center
Sun 12:08:19 PM 35.5661 -113.6903 243° Southwest 439 505 38,000  Level Los Center
Sun 12:09:21 PM 35.5131 -113.8225 244° Southwest 437 503 38,000  Level Los Center
Sun 12:10:24 PM 35.4583 -113.9539 243° Southwest 437 503 38,000  Level Los Center
Sun 12:11:25 PM 35.4008 -114.0953 244° Southwest 441 507 38,000  Level Los Center
Sun 12:12:27 PM 35.3458 -114.2281 243° Southwest 439 505 38,000  Level Los Center
Sun 12:13:30 PM 35.2908 -114.3614 243° Southwest 439 505 38,000  Level Los Center
Sun 12:14:32 PM 35.2244 -114.5206 243° Southwest 438 504 38,000  Level Los Center
Sun 12:15:34 PM 35.1692 -114.6547 243° Southwest 440 506 38,000  Level Los Center
Sun 12:16:36 PM 35.1139 -114.7872 243° Southwest 438 504 38,000  Level Los Center
Sun 12:17:38 PM 35.0589 -114.9178 243° Southwest 433 498 38,000 -435 Level Los Center
Sun 12:18:40 PM 35.0036 -115.0486 243° Southwest 432 497 37,100 -1,065 Descending Los Center
Sun 12:19:42 PM 34.9467 -115.1833 243° Southwest 445 512 35,800 -1,113 Descending Los Center
Sun 12:20:44 PM 34.8894 -115.3197 243° Southwest 450 518 34,800 -1,056 Descending Los Center
Sun 12:21:47 PM 34.8214 -115.4797 243° Southwest 445 512 33,600 -1,008 Descending Los Center
Sun 12:22:49 PM 34.7697 -115.6006 243° Southwest 449 517 32,700 -919 Descending Los Center
Sun 12:23:51 PM 34.7122 -115.7353 243° Southwest 450 518 31,700 -968 Descending Los Center
Sun 12:24:53 PM 34.6522 -115.8717 242° Southwest 456 525 30,700 -1,051 Descending Los Center
Sun 12:26:08 PM 34.5717 -116.0617 243° Southwest 452 520 29,300 -964 Descending Los Center
Sun 12:27:10 PM 34.5119 -116.1950 242° Southwest 450 518 28,500 -726 Descending Los Center
Sun 12:28:12 PM 34.4536 -116.3275 242° Southwest 447 514 27,800 -677 Descending Los Center
Sun 12:29:14 PM 34.3967 -116.4581 242° Southwest 439 505 27,100 -968 Descending Los Center
Sun 12:30:16 PM 34.3394 -116.5878 242° Southwest 437 503 25,800 -1,839 Descending Los Center
Sun 12:31:18 PM 34.2733 -116.7364 242° Southwest 421 484 23,300 -2,129 Descending Los Center
Sun 12:32:20 PM 34.2197 -116.8575 242° Southwest 411 473 21,400 -1,839 Descending Los Center
Sun 12:33:22 PM 34.1681 -116.9725 242° Southwest 395 455 19,500 -1,597 Descending Los Center
Sun 12:34:24 PM 34.1167 -117.0881 242° Southwest 380 437 18,100 -1,400 Descending Los Center
Sun 12:34:52 PM 34.0833 -117.1500 237° Southwest 377 434 17,400 -1,636 Descending Southern TRACON
Sun 12:35:52 PM 34.0500 -117.2667 251° West 377 434 15,700 -1,619 Descending Southern TRACON
Sun 12:36:58 PM 34.0333 -117.4000 261° West 360 414 14,000 -1,619 Descending Southern TRACON
Sun 12:37:58 PM 34.0167 -117.5167 260° West 358 412 12,300 -1,200 Descending Southern TRACON
Sun 12:38:58 PM 34.0167 -117.6333 270° West 405 466 11,600 -1,041 Descending Southern TRACON
Sun 12:39:59 PM 34.0000 -117.7333 259° West 298 343 10,200 -1,304 Descending Southern TRACON
Sun 12:40:53 PM 34.0000 -117.8167 270° West 295 339 9,100 -1,350 Descending Southern TRACON
Sun 12:41:59 PM 33.9833 -117.9333 260° West 288 331 7,500 -1,524 Descending Southern TRACON
Sun 12:42:59 PM 33.9667 -118.0167 256° West 267 307 5,900 -1,300 Descending Southern TRACON
Sun 12:43:59 PM 33.9667 -118.1000 270° West 233 268 4,900 -897 Descending Southern TRACON
Sun 12:44:46 PM 33.9611 -118.1519 263° West 228 262 4,300 -1,156 Descending Los Center
Sun 12:45:48 PM 33.9542 -118.2156 263° West 203 234 2,800 -1,161 Descending Los Center
Sun 12:46:50 PM 33.9486 -118.2736 263° West 189 217 1,900 -871 Descending Los Center
Sun 12:47:52 PM 33.9425 -118.3347 263° West 168 193 1,000 -774 Descending Los Center
Sun 12:48:54 PM 33.9389 -118.3789 264° West 149 171 300 -677 Descending Los Center
Sun 12:50:00 PM 33.9333 -118.4000 259° West  Level FlightAware
Sun 12:57:00 PM 33.9425 -118.4081 259° West  Level Estimated

Login

Don't have an account? Register now (free) for customized features, flight alerts, and more!